Time;durP1;ratioP1;P1;durP2;ratioP2;P2;SDS_P1;SDS_P2;PMS_P1;PMS_P2;Temp;Humidity;BMP_temperature;BMP_pressure;BME280_temperature;BME280_humidity;BME280_pressure;Samples;Min_cycle;Max_cycle;Signal;HPM_P1;HPM_P2
2023/10/11 00:01:47;;;;;;;35.22;14.60;;;18.00;99.90;;;;;;5089546;28;20123;-66
2023/10/11 00:04:26;;;;;;;44.90;14.90;;;18.00;99.90;;;;;;5081021;28;20556;-66
2023/10/11 00:06:54;;;;;;;43.65;16.05;;;18.00;99.90;;;;;;5078742;28;20059;-66
2023/10/11 00:09:34;;;;;;;36.15;15.93;;;18.00;99.90;;;;;;5082058;28;20456;-66
2023/10/11 00:12:01;;;;;;;37.83;13.77;;;18.10;99.90;;;;;;5085734;28;20036;-66
2023/10/11 00:14:28;;;;;;;39.72;15.40;;;18.00;99.90;;;;;;5086872;28;20431;-66
2023/10/11 00:16:54;;;;;;;39.38;15.18;;;18.00;99.90;;;;;;5066771;28;20017;-65
2023/10/11 00:19:22;;;;;;;34.80;13.43;;;18.00;99.90;;;;;;5051334;28;20520;-65
2023/10/11 00:21:49;;;;;;;40.67;13.63;;;18.00;99.90;;;;;;5052268;28;20060;-66
2023/10/11 00:24:17;;;;;;;38.40;13.60;;;18.00;99.90;;;;;;5052165;28;20082;-65
2023/10/11 00:26:44;;;;;;;39.58;14.18;;;18.00;99.90;;;;;;5051826;28;20548;-66
2023/10/11 00:29:11;;;;;;;40.30;15.15;;;18.00;99.90;;;;;;5061512;28;20036;-66
2023/10/11 00:31:38;;;;;;;36.75;13.32;;;18.00;99.90;;;;;;5052078;28;20022;-65
2023/10/11 00:34:07;;;;;;;36.83;14.32;;;18.00;99.90;;;;;;5052182;28;20029;-65
2023/10/11 00:36:33;;;;;;;36.05;14.25;;;18.00;99.90;;;;;;5051762;28;20152;-66
2023/10/11 00:38:58;;;;;;;39.58;14.27;;;18.00;99.90;;;;;;5052214;28;20492;-66
2023/10/11 00:41:31;;;;;;;34.58;13.98;;;18.00;99.90;;;;;;5059522;28;20028;-66
2023/10/11 00:43:57;;;;;;;33.25;13.50;;;18.00;99.90;;;;;;5088372;28;20024;-65
2023/10/11 00:46:28;;;;;;;38.47;13.45;;;18.00;99.90;;;;;;5091175;28;20102;-65
2023/10/11 00:48:54;;;;;;;42.28;14.30;;;18.00;99.90;;;;;;5072125;28;20032;-67
2023/10/11 00:51:23;;;;;;;33.60;13.25;;;18.00;99.90;;;;;;5071360;28;20472;-66
2023/10/11 00:53:50;;;;;;;33.00;12.85;;;18.00;99.90;;;;;;5071793;28;20027;-65
2023/10/11 00:56:18;;;;;;;39.13;13.40;;;18.00;99.90;;;;;;5071851;28;20024;-65
2023/10/11 00:58:44;;;;;;;40.53;14.35;;;18.00;99.90;;;;;;5074990;28;20028;-64
2023/10/11 01:01:10;;;;;;;36.00;13.30;;;17.90;99.90;;;;;;5092552;28;20449;-66
2023/10/11 01:03:37;;;;;;;34.92;14.60;;;17.90;99.90;;;;;;5092012;28;20349;-66
2023/10/11 01:06:04;;;;;;;38.83;13.10;;;17.90;99.90;;;;;;5092057;28;20109;-65
2023/10/11 01:08:38;;;;;;;39.33;13.95;;;17.90;99.90;;;;;;5075271;28;20046;-65
2023/10/11 01:11:10;;;;;;;36.97;13.98;;;17.90;99.90;;;;;;5051773;28;20575;-65
2023/10/11 01:13:40;;;;;;;;;;;17.90;99.90;;;;;;5057968;28;20030;-65
2023/10/11 01:16:09;;;;;;;37.25;14.63;;;17.90;99.90;;;;;;5051593;28;19981;-65
2023/10/11 01:18:35;;;;;;;39.90;14.80;;;17.80;99.90;;;;;;5051787;28;20021;-65
2023/10/11 01:21:04;;;;;;;39.85;14.00;;;17.80;99.90;;;;;;5051809;28;20025;-65
2023/10/11 01:23:30;;;;;;;38.97;14.13;;;17.80;99.90;;;;;;5051439;28;20021;-66
2023/10/11 01:25:56;;;;;;;34.00;13.57;;;17.80;99.90;;;;;;5081320;28;20040;-66
2023/10/11 01:28:22;;;;;;;38.00;14.18;;;17.80;99.90;;;;;;5090492;28;20031;-66
2023/10/11 01:30:47;;;;;;;39.83;13.95;;;17.80;99.90;;;;;;5074962;28;20036;-66
2023/10/11 01:33:16;;;;;;;37.45;14.27;;;17.80;99.90;;;;;;5074417;28;20074;-65
2023/10/11 01:35:42;;;;;;;39.13;14.85;;;17.80;99.90;;;;;;5073124;28;20033;-65
2023/10/11 01:38:08;;;;;;;42.13;16.50;;;17.80;99.90;;;;;;5074948;28;20059;-66
2023/10/11 01:40:33;;;;;;;37.13;13.82;;;17.80;99.90;;;;;;5074420;28;20452;-66
2023/10/11 01:43:02;;;;;;;38.58;14.98;;;17.70;99.90;;;;;;5074378;28;20495;-65
2023/10/11 01:45:28;;;;;;;37.55;13.82;;;17.70;99.90;;;;;;5063642;28;20416;-66
2023/10/11 01:47:56;;;;;;;40.47;14.40;;;17.80;99.90;;;;;;5083162;28;20026;-66
2023/10/11 01:50:24;;;;;;;39.35;13.80;;;17.70;99.90;;;;;;5081595;28;20031;-66
2023/10/11 01:52:50;;;;;;;35.50;13.52;;;17.70;99.90;;;;;;5095274;28;20047;-66
2023/10/11 01:55:17;;;;;;;37.22;14.23;;;17.70;99.90;;;;;;5085373;28;20741;-66
2023/10/11 01:57:48;;;;;;;44.10;14.05;;;17.70;99.90;;;;;;5073577;28;20433;-67
2023/10/11 02:00:15;;;;;;;41.22;15.07;;;17.70;99.90;;;;;;5074967;28;20040;-66
2023/10/11 02:02:47;;;;;;;41.28;14.82;;;17.70;99.90;;;;;;5074482;28;20075;-66
2023/10/11 02:05:15;;;;;;;42.78;16.20;;;17.70;99.90;;;;;;5069994;28;20102;-66
2023/10/11 02:07:41;;;;;;;33.42;15.27;;;17.70;99.90;;;;;;5054275;28;20033;-66
2023/10/11 02:10:11;;;;;;;37.00;13.70;;;17.70;99.90;;;;;;5054673;28;20540;-66
2023/10/11 02:12:46;;;;;;;35.13;14.00;;;17.70;99.90;;;;;;5054626;28;20242;-66
2023/10/11 02:15:29;;;;;;;42.80;14.68;;;17.70;99.90;;;;;;5062912;28;20123;-66
2023/10/11 02:17:58;;;;;;;41.42;13.95;;;17.70;99.90;;;;;;5073173;28;20040;-66
2023/10/11 02:20:24;;;;;;;38.88;15.27;;;17.70;99.90;;;;;;5074786;28;20029;-66
2023/10/11 02:22:55;;;;;;;37.03;13.80;;;17.70;99.90;;;;;;5090425;28;20028;-66
2023/10/11 02:25:25;;;;;;;37.45;14.23;;;17.70;99.90;;;;;;5094588;28;20040;-66
2023/10/11 02:27:52;;;;;;;38.85;14.93;;;17.70;99.90;;;;;;5084517;28;20476;-66
2023/10/11 02:30:22;;;;;;;40.00;15.07;;;17.70;99.90;;;;;;5082353;28;20028;-67
2023/10/11 02:32:52;;;;;;;41.75;15.70;;;17.70;99.90;;;;;;5084057;28;20024;-66
2023/10/11 02:35:19;;;;;;;41.47;14.68;;;17.70;99.90;;;;;;5082220;28;20077;-66
2023/10/11 02:37:48;;;;;;;37.50;14.75;;;17.70;99.90;;;;;;5086078;28;20023;-66
2023/10/11 02:40:22;;;;;;;41.78;15.23;;;17.70;99.90;;;;;;5072772;28;20033;-66
2023/10/11 02:42:49;;;;;;;33.05;14.40;;;17.70;99.90;;;;;;5053468;28;20432;-67
2023/10/11 02:45:21;;;;;;;38.58;14.65;;;17.70;99.90;;;;;;5053860;28;20040;-67
2023/10/11 02:47:47;;;;;;;44.45;15.25;;;17.70;99.90;;;;;;5064877;28;20052;-66
2023/10/11 02:50:13;;;;;;;43.03;15.02;;;17.80;99.90;;;;;;5094221;28;20067;-66
2023/10/11 02:52:39;;;;;;;40.63;15.23;;;17.70;99.90;;;;;;5094127;28;20052;-67
2023/10/11 02:55:43;;;;;;;41.88;14.98;;;17.80;99.90;;;;;;5093731;28;20111;-67
2023/10/11 02:58:08;;;;;;;38.25;15.32;;;17.80;99.90;;;;;;5080927;28;20068;-66
2023/10/11 03:00:35;;;;;;;38.25;14.65;;;17.80;99.90;;;;;;5081985;28;20515;-66
2023/10/11 03:03:01;;;;;;;41.35;14.57;;;17.80;99.90;;;;;;5093956;28;20020;-67
2023/10/11 03:05:27;;;;;;;38.55;14.73;;;17.90;99.90;;;;;;5093577;28;20139;-67
2023/10/11 03:07:54;;;;;;;36.78;13.95;;;17.90;99.90;;;;;;5076972;28;20093;-66
2023/10/11 03:10:20;;;;;;;37.85;14.13;;;17.90;99.90;;;;;;5080354;28;20028;-67
2023/10/11 03:12:50;;;;;;;30.60;13.15;;;18.00;99.90;;;;;;5093362;28;20055;-66
2023/10/11 03:15:19;;;;;;;34.53;13.45;;;18.00;99.90;;;;;;5093615;28;20027;-66
2023/10/11 03:17:46;;;;;;;34.60;13.80;;;18.00;99.90;;;;;;5084385;28;20422;-66
2023/10/11 03:23:21;;;;;;;40.13;14.10;;;18.10;99.90;;;;;;5010930;28;20034;-67
2023/10/11 03:25:49;;;;;;;37.58;13.68;;;18.10;99.90;;;;;;5011114;28;20104;-66
2023/10/11 03:28:21;;;;;;;35.83;14.55;;;18.10;99.90;;;;;;5031504;28;20123;-67
2023/10/11 03:30:46;;;;;;;35.58;14.65;;;18.20;99.90;;;;;;5052759;28;20028;-67
2023/10/11 03:33:12;;;;;;;39.40;15.20;;;18.20;99.90;;;;;;5053133;28;20025;-66
2023/10/11 03:35:38;;;;;;;37.03;15.10;;;18.20;99.90;;;;;;5052863;28;20040;-66
2023/10/11 03:38:16;;;;;;;35.13;14.43;;;18.20;99.90;;;;;;5060908;28;20461;-66
2023/10/11 03:41:14;;;;;;;36.65;14.27;;;18.20;99.90;;;;;;5071973;28;20028;-66
2023/10/11 03:43:40;;;;;;;34.75;14.75;;;18.20;99.90;;;;;;5072534;28;20461;-66
2023/10/11 03:46:10;;;;;;;39.28;14.65;;;18.30;99.90;;;;;;5070685;28;20120;-67
2023/10/11 03:48:44;;;;;;;34.67;14.98;;;18.30;99.90;;;;;;5072193;28;20028;-64
2023/10/11 03:51:12;;;;;;;36.20;14.30;;;18.30;99.90;;;;;;5072651;28;20056;-66
2023/10/11 03:53:40;;;;;;;31.23;14.15;;;18.30;99.90;;;;;;5060843;28;20025;-64
2023/10/11 03:56:07;;;;;;;39.90;14.10;;;18.30;99.90;;;;;;5054987;28;20040;-65
2023/10/11 03:58:33;;;;;;;32.42;13.60;;;18.40;99.90;;;;;;5052771;28;20435;-65
2023/10/11 04:01:14;;;;;;;32.08;13.00;;;18.40;99.90;;;;;;5072594;28;20032;-65
2023/10/11 04:03:40;;;;;;;36.20;13.48;;;18.40;99.90;;;;;;5073071;28;20424;-65
2023/10/11 04:06:19;;;;;;;38.20;13.43;;;18.40;99.90;;;;;;5059126;28;20040;-65
2023/10/11 04:08:56;;;;;;;35.25;15.70;;;18.30;99.90;;;;;;5052850;28;20021;-65
2023/10/11 04:11:37;;;;;;;43.95;15.85;;;18.30;99.90;;;;;;5052695;28;20037;-65
2023/10/11 04:14:17;;;;;;;39.33;15.57;;;18.20;99.90;;;;;;5052665;28;20056;-65
2023/10/11 04:16:44;;;;;;;39.10;15.80;;;18.20;99.90;;;;;;5052217;28;20032;-67
2023/10/11 04:19:10;;;;;;;38.38;15.25;;;18.20;99.90;;;;;;5064191;28;20458;-67
2023/10/11 04:21:53;;;;;;;39.88;15.82;;;18.10;99.90;;;;;;5072662;28;20100;-66
2023/10/11 04:24:19;;;;;;;43.08;17.10;;;18.00;99.90;;;;;;5072619;28;20087;-67
2023/10/11 04:27:45;;;;;;;38.35;15.48;;;18.00;99.90;;;;;;5054729;28;20060;-66
2023/10/11 04:29:44;;;;;;;41.05;16.75;;;18.00;99.90;;;;;;5052258;28;20032;-65
2023/10/11 04:32:13;;;;;;;33.92;15.18;;;18.00;99.90;;;;;;5052478;28;20025;-65
2023/10/11 04:34:48;;;;;;;40.38;16.25;;;18.00;99.90;;;;;;5052575;28;20021;-66
2023/10/11 04:37:27;;;;;;;32.50;14.85;;;18.00;99.90;;;;;;5052627;28;20041;-65
2023/10/11 04:39:57;;;;;;;42.83;16.08;;;18.00;99.90;;;;;;5052628;28;20025;-65
2023/10/11 04:42:29;;;;;;;34.65;16.02;;;18.00;99.90;;;;;;5052535;28;20487;-66
2023/10/11 04:44:56;;;;;;;40.78;18.30;;;18.10;99.90;;;;;;5052187;28;20397;-66
2023/10/11 04:47:23;;;;;;;35.65;14.57;;;18.10;99.90;;;;;;5057722;28;20100;-65
2023/10/11 04:49:52;;;;;;;40.63;15.68;;;18.10;99.90;;;;;;5072260;28;20021;-65
2023/10/11 04:52:23;;;;;;;37.65;14.30;;;18.10;99.90;;;;;;5071400;28;20072;-66
2023/10/11 04:54:55;;;;;;;42.63;15.88;;;18.20;99.90;;;;;;5052180;28;20033;-66
2023/10/11 04:57:33;;;;;;;41.22;14.88;;;18.20;99.90;;;;;;5052053;28;20033;-65
2023/10/11 05:00:00;;;;;;;40.60;16.17;;;18.10;99.90;;;;;;5052252;28;20027;-65
2023/10/11 05:02:32;;;;;;;44.80;15.43;;;18.20;99.90;;;;;;5051708;28;20028;-66
2023/10/11 05:04:59;;;;;;;37.20;14.25;;;18.10;99.90;;;;;;5054426;28;20072;-66
2023/10/11 05:07:25;;;;;;;36.90;15.65;;;18.10;99.90;;;;;;5056104;28;20135;-65
2023/10/11 05:10:01;;;;;;;41.53;14.68;;;18.10;99.90;;;;;;5056052;28;20029;-65
2023/10/11 05:12:26;;;;;;;37.20;15.88;;;18.10;99.90;;;;;;5055999;28;20020;-65
2023/10/11 05:30:06;;;;;;;37.53;14.20;;;17.90;99.90;;;;;;5055765;28;20033;-65
2023/10/11 05:32:33;;;;;;;33.15;14.52;;;17.90;99.90;;;;;;5062635;28;20555;-65
2023/10/11 05:51:19;;;;;;;40.25;14.55;;;18.10;99.90;;;;;;5074723;28;20055;-65
2023/10/11 05:53:46;;;;;;;40.40;14.75;;;18.10;99.90;;;;;;5063434;28;20032;-67
2023/10/11 05:56:20;;;;;;;42.53;16.25;;;18.10;99.90;;;;;;5068259;28;20040;-65
2023/10/11 05:58:53;;;;;;;36.00;14.13;;;18.20;99.90;;;;;;5063402;28;20029;-67
2023/10/11 06:01:23;;;;;;;36.83;16.10;;;18.10;99.90;;;;;;5056592;28;20120;-66
2023/10/11 06:03:55;;;;;;;42.40;15.02;;;18.20;99.90;;;;;;5074671;28;20111;-66
2023/10/11 06:06:32;;;;;;;40.50;14.85;;;18.20;99.90;;;;;;5069433;28;20032;-66
2023/10/11 06:08:58;;;;;;;36.85;15.20;;;18.20;99.90;;;;;;5074925;28;20480;-66
2023/10/11 06:11:29;;;;;;;36.72;15.38;;;18.30;99.90;;;;;;5074840;28;20063;-66
2023/10/11 06:13:55;;;;;;;41.90;15.32;;;18.30;99.90;;;;;;5075042;28;20440;-65
2023/10/11 06:16:24;;;;;;;41.63;15.00;;;18.20;99.90;;;;;;5072674;28;20037;-66
2023/10/11 06:18:57;;;;;;;39.58;14.88;;;18.30;99.90;;;;;;5074756;28;20082;-66
2023/10/11 06:21:33;;;;;;;39.20;14.65;;;18.30;99.90;;;;;;5074762;28;20029;-66
2023/10/11 06:24:05;;;;;;;40.28;14.88;;;18.40;99.90;;;;;;5074484;28;20448;-66
2023/10/11 06:29:08;;;;;;;34.05;13.75;;;18.50;99.90;;;;;;5054346;28;20025;-66
2023/10/11 06:31:43;;;;;;;37.45;12.63;;;18.50;99.90;;;;;;5054369;28;20035;-66
2023/10/11 06:34:17;;;;;;;35.85;13.55;;;18.60;99.90;;;;;;5054179;28;20033;-65
2023/10/11 06:36:49;;;;;;;39.35;14.00;;;18.50;99.90;;;;;;5061957;28;20028;-66
2023/10/11 06:42:31;;;;;;;34.00;12.10;;;18.60;99.90;;;;;;5062973;28;20059;-66
2023/10/11 06:44:59;;;;;;;30.58;11.70;;;18.60;99.90;;;;;;5067404;28;20036;-66
2023/10/11 06:47:26;;;;;;;30.13;11.80;;;18.70;99.90;;;;;;5072521;28;20031;-66
2023/10/11 06:49:54;;;;;;;28.30;11.70;;;18.70;99.90;;;;;;5072115;28;20035;-66
2023/10/11 06:52:25;;;;;;;26.15;10.52;;;18.60;99.90;;;;;;5073372;28;20041;-66
2023/10/11 06:57:39;;;;;;;21.05;9.15;;;18.70;99.90;;;;;;5066940;28;20093;-66
2023/10/11 07:00:24;;;;;;;24.98;9.68;;;18.70;99.90;;;;;;5072767;28;20025;-66
2023/10/11 07:03:26;;;;;;;25.08;9.55;;;18.70;99.90;;;;;;5055246;28;20017;-67
2023/10/11 07:06:10;;;;;;;27.02;10.10;;;18.70;99.90;;;;;;5055909;28;20041;-66
2023/10/11 07:08:35;;;;;;;24.92;9.27;;;18.70;99.90;;;;;;5054640;28;20099;-66
2023/10/11 07:11:16;;;;;;;23.60;8.82;;;18.70;99.90;;;;;;5071457;28;20028;-66
2023/10/11 07:14:00;;;;;;;26.27;9.98;;;18.70;99.90;;;;;;5053240;28;20104;-66
2023/10/11 07:16:28;;;;;;;23.38;9.18;;;18.80;99.90;;;;;;5062791;28;20025;-66
2023/10/11 07:18:56;;;;;;;28.92;9.48;;;18.80;99.90;;;;;;5073121;28;20025;-64
2023/10/11 07:21:27;;;;;;;28.67;9.57;;;18.80;99.90;;;;;;5069665;28;20032;-66
2023/10/11 07:26:25;;;;;;;25.88;9.88;;;18.80;99.90;;;;;;5077721;28;20044;-65
2023/10/11 07:28:52;;;;;;;26.05;9.32;;;18.80;99.90;;;;;;5074476;28;20502;-65
2023/10/11 07:31:19;;;;;;;27.83;10.07;;;18.80;99.90;;;;;;5076854;28;20073;-66
2023/10/11 07:33:55;;;;;;;25.58;9.15;;;18.70;99.90;;;;;;5088772;28;20060;-65
2023/10/11 07:36:22;;;;;;;20.88;8.60;;;18.70;99.90;;;;;;5072604;28;20025;-65
2023/10/11 07:38:54;;;;;;;31.45;10.15;;;18.70;99.90;;;;;;5074199;28;20028;-65
2023/10/11 07:41:29;;;;;;;27.30;9.50;;;18.70;99.90;;;;;;5068705;28;20082;-66
2023/10/11 07:43:56;;;;;;;24.75;9.32;;;18.60;99.90;;;;;;5079750;28;20039;-66
2023/10/11 07:46:23;;;;;;;23.83;9.32;;;18.70;99.90;;;;;;5088705;28;20024;-66
2023/10/11 07:48:48;;;;;;;25.63;9.55;;;18.70;99.90;;;;;;5077711;28;20028;-65
2023/10/11 07:51:14;;;;;;;26.73;10.10;;;18.70;99.90;;;;;;5071825;28;20044;-66
2023/10/11 07:53:41;;;;;;;28.63;10.07;;;18.70;99.90;;;;;;5072793;28;20033;-66
2023/10/11 07:56:08;;;;;;;25.55;9.52;;;18.70;99.90;;;;;;5071520;28;20020;-66
2023/10/11 07:58:35;;;;;;;27.13;9.93;;;18.70;99.90;;;;;;5071870;28;20037;-65
2023/10/11 08:01:15;;;;;;;30.15;10.32;;;18.70;99.90;;;;;;5072314;28;20119;-66
2023/10/11 08:03:44;;;;;;;26.88;9.65;;;18.70;99.90;;;;;;5072125;28;20368;-66
2023/10/11 08:06:13;;;;;;;24.65;9.27;;;18.70;99.90;;;;;;5072623;28;20045;-66
2023/10/11 08:08:40;;;;;;;23.85;8.90;;;18.70;99.90;;;;;;5072555;28;20115;-66
2023/10/11 08:11:23;;;;;;;23.08;8.57;;;18.70;99.90;;;;;;5072380;28;20115;-66
2023/10/11 08:13:49;;;;;;;23.38;9.65;;;18.70;99.90;;;;;;5072537;28;20396;-66
2023/10/11 08:16:18;;;;;;;25.95;8.85;;;18.70;99.90;;;;;;5071089;28;20435;-66
2023/10/11 08:18:48;;;;;;;24.98;9.30;;;18.70;99.90;;;;;;5072639;28;20074;-66
2023/10/11 08:21:15;;;;;;;22.92;8.18;;;18.80;99.90;;;;;;5072611;28;20032;-66
2023/10/11 08:23:44;;;;;;;22.10;8.30;;;18.70;99.90;;;;;;5072685;28;20540;-66
2023/10/11 08:26:14;;;;;;;22.17;8.50;;;18.80;99.90;;;;;;5072065;28;20151;-66
2023/10/11 08:28:49;;;;;;;22.00;7.65;;;18.70;99.90;;;;;;5072048;28;20047;-65
2023/10/11 08:31:27;;;;;;;18.75;7.65;;;18.70;99.90;;;;;;5072362;28;20032;-65
2023/10/11 08:33:53;;;;;;;18.23;6.10;;;18.80;99.90;;;;;;5072144;28;20039;-65
2023/10/11 08:36:20;;;;;;;17.88;6.07;;;18.80;99.90;;;;;;5071723;28;20035;-66
2023/10/11 08:38:45;;;;;;;18.38;6.70;;;18.90;99.90;;;;;;5072335;28;20494;-65
2023/10/11 08:41:15;;;;;;;15.13;5.35;;;19.00;99.90;;;;;;5075973;28;20103;-66
2023/10/11 08:43:42;;;;;;;20.20;6.00;;;19.10;99.90;;;;;;5076498;28;20040;-65
2023/10/11 08:46:11;;;;;;;18.55;5.97;;;19.10;99.90;;;;;;5076432;28;20043;-65
2023/10/11 08:48:40;;;;;;;17.90;5.47;;;19.10;99.90;;;;;;5076107;28;20025;-65
2023/10/11 08:51:12;;;;;;;16.73;6.15;;;19.10;99.90;;;;;;5076150;28;20048;-65
2023/10/11 08:53:47;;;;;;;24.65;6.00;;;19.10;99.90;;;;;;5075988;28;20029;-65
2023/10/11 08:56:17;;;;;;;15.68;5.75;;;19.20;99.90;;;;;;5075904;28;20115;-65
2023/10/11 08:58:51;;;;;;;22.42;6.68;;;19.30;99.90;;;;;;5075871;28;20024;-65
2023/10/11 09:01:17;;;;;;;15.60;5.57;;;19.50;99.90;;;;;;5076551;28;20078;-66
2023/10/11 09:03:42;;;;;;;17.48;6.10;;;19.60;99.90;;;;;;5075873;28;20028;-66
2023/10/11 09:06:22;;;;;;;17.10;5.25;;;19.70;99.90;;;;;;5075851;28;20416;-66
2023/10/11 09:08:49;;;;;;;15.88;5.55;;;19.80;99.90;;;;;;5075849;28;20028;-66
2023/10/11 09:11:28;;;;;;;17.25;6.13;;;19.80;99.90;;;;;;5076067;28;20066;-66
2023/10/11 09:14:08;;;;;;;23.33;6.80;;;19.80;99.90;;;;;;5075837;28;20469;-66
2023/10/11 09:16:37;;;;;;;21.92;7.50;;;19.80;99.90;;;;;;5075523;28;20035;-66
2023/10/11 09:19:09;;;;;;;21.13;5.95;;;19.80;99.90;;;;;;5075995;28;20029;-66
2023/10/11 09:21:35;;;;;;;22.33;8.10;;;19.80;99.90;;;;;;5075806;28;20481;-66
2023/10/11 09:24:03;;;;;;;23.15;8.70;;;19.80;99.90;;;;;;5075577;28;20032;-66
2023/10/11 09:26:33;;;;;;;21.30;8.10;;;19.90;99.90;;;;;;5075450;28;20098;-66
2023/10/11 09:29:03;;;;;;;19.73;6.32;;;20.30;99.90;;;;;;5075532;28;20119;-66
2023/10/11 09:31:32;;;;;;;22.52;8.07;;;20.70;99.90;;;;;;5075451;28;20062;-66
2023/10/11 09:34:07;;;;;;;16.05;5.82;;;21.00;99.90;;;;;;5075392;28;20074;-65
2023/10/11 09:36:33;;;;;;;11.60;4.70;;;21.30;99.90;;;;;;5075510;28;20067;-66
2023/10/11 09:39:02;;;;;;;21.08;6.93;;;21.40;99.90;;;;;;5075222;28;20064;-66
2023/10/11 09:41:28;;;;;;;19.60;7.60;;;21.50;99.90;;;;;;5075139;28;20052;-66
2023/10/11 09:43:58;;;;;;;23.40;8.13;;;21.60;99.90;;;;;;5075114;28;20031;-67
2023/10/11 09:46:29;;;;;;;24.70;8.35;;;22.00;99.90;;;;;;5075384;28;20074;-66
2023/10/11 09:48:56;;;;;;;24.52;8.05;;;22.40;99.90;;;;;;5075165;28;20056;-65
2023/10/11 09:51:24;;;;;;;19.15;7.80;;;22.60;99.90;;;;;;5074986;28;20057;-65
2023/10/11 09:53:50;;;;;;;23.40;8.52;;;23.00;99.90;;;;;;5074877;28;20044;-65
2023/10/11 09:56:51;;;;;;;18.20;5.18;;;23.60;99.90;;;;;;5074602;28;20059;-65
2023/10/11 09:59:59;;;;;;;19.05;5.68;;;23.90;99.90;;;;;;5075121;28;20059;-66
2023/10/11 10:02:38;;;;;;;21.67;6.43;;;24.10;99.90;;;;;;5074872;28;20028;-66
2023/10/11 10:05:05;;;;;;;18.63;5.22;;;24.70;99.90;;;;;;5074798;28;20040;-66
2023/10/11 10:10:08;;;;;;;13.93;5.10;;;24.10;99.90;;;;;;5077107;28;20377;-66
2023/10/11 10:12:56;;;;;;;17.42;5.95;;;24.00;99.90;;;;;;5074112;28;20031;-66
2023/10/11 10:15:23;;;;;;;20.02;5.93;;;23.90;99.90;;;;;;5073088;28;20032;-66
2023/10/11 10:17:56;;;;;;;15.75;5.25;;;24.30;99.90;;;;;;5074809;28;20032;-66
2023/10/11 10:20:33;;;;;;;17.35;4.95;;;24.40;99.90;;;;;;5074553;28;20056;-65
2023/10/11 10:23:14;;;;;;;14.70;5.30;;;24.80;99.90;;;;;;5074257;28;20474;-66
2023/10/11 10:25:45;;;;;;;16.08;5.68;;;25.00;99.90;;;;;;5073336;28;20507;-66
2023/10/11 10:28:30;;;;;;;;;;;24.90;99.90;;;;;;5074598;28;20085;-65
2023/10/11 10:31:10;;;;;;;16.52;4.90;;;24.40;99.90;;;;;;5075381;28;20292;-66
2023/10/11 10:33:40;;;;;;;15.07;5.97;;;23.80;99.90;;;;;;5075225;28;20032;-66
2023/10/11 10:36:20;;;;;;;17.88;5.95;;;23.30;99.90;;;;;;5072640;28;20532;-66
2023/10/11 10:38:58;;;;;;;17.70;5.93;;;22.90;99.90;;;;;;5072508;28;20016;-66
2023/10/11 10:41:27;;;;;;;18.05;5.38;;;22.80;99.90;;;;;;5070157;28;20358;-65
2023/10/11 10:44:04;;;;;;;17.33;5.40;;;22.60;99.90;;;;;;5071996;28;20035;-66
2023/10/11 10:46:33;;;;;;;18.15;5.38;;;22.50;99.90;;;;;;5073097;28;20382;-65
2023/10/11 10:49:01;;;;;;;13.68;4.97;;;22.60;99.90;;;;;;5072431;28;20070;-66
2023/10/11 10:51:37;;;;;;;15.48;5.03;;;22.90;99.90;;;;;;5070664;28;20052;-66
2023/10/11 10:54:21;;;;;;;18.63;5.68;;;23.00;99.90;;;;;;5070300;28;20032;-65
2023/10/11 10:56:48;;;;;;;14.60;5.22;;;22.90;99.90;;;;;;5070530;28;20021;-65
2023/10/11 10:59:20;;;;;;;16.35;4.90;;;22.70;99.90;;;;;;5070491;28;20492;-65
2023/10/11 11:01:47;;;;;;;20.33;5.28;;;22.70;99.90;;;;;;5069883;28;20527;-65
2023/10/11 11:04:15;;;;;;;17.65;5.07;;;22.50;99.90;;;;;;5069754;28;20028;-65
2023/10/11 11:06:46;;;;;;;19.48;5.60;;;22.20;99.90;;;;;;5072666;28;20495;-66
2023/10/11 11:09:14;;;;;;;19.37;5.20;;;22.00;99.90;;;;;;5071720;28;20046;-66
2023/10/11 11:11:41;;;;;;;16.17;5.32;;;22.00;99.90;;;;;;5073428;28;20024;-65
2023/10/11 11:14:11;;;;;;;21.20;5.28;;;22.10;99.90;;;;;;5073592;28;20548;-66
2023/10/11 11:16:41;;;;;;;22.45;5.82;;;22.00;99.90;;;;;;5073336;28;20028;-66
2023/10/11 11:19:16;;;;;;;18.52;5.28;;;22.00;99.90;;;;;;5073459;28;20078;-66
2023/10/11 11:21:46;;;;;;;21.02;5.35;;;22.10;99.90;;;;;;5073442;28;20099;-66
2023/10/11 11:24:27;;;;;;;16.80;4.95;;;22.40;99.90;;;;;;5073450;28;20465;-66
2023/10/11 11:26:56;;;;;;;18.38;4.78;;;22.60;99.90;;;;;;5073618;28;20071;-66
2023/10/11 11:29:32;;;;;;;19.65;4.75;;;22.60;99.90;;;;;;5073329;28;20098;-66
2023/10/11 11:32:07;;;;;;;22.27;5.55;;;22.60;99.90;;;;;;5072331;28;20024;-67
2023/10/11 11:34:37;;;;;;;16.00;4.53;;;22.80;99.90;;;;;;5073289;28;20033;-67
2023/10/11 11:37:06;;;;;;;19.20;4.82;;;22.80;99.90;;;;;;5073274;28;20103;-66
2023/10/11 11:39:42;;;;;;;17.25;5.50;;;22.90;99.90;;;;;;5073097;28;20032;-67
2023/10/11 11:42:18;;;;;;;17.67;5.47;;;22.80;99.90;;;;;;5072259;28;20033;-67
2023/10/11 11:44:48;;;;;;;21.70;6.40;;;22.60;99.90;;;;;;5073083;28;20041;-67
2023/10/11 11:47:21;;;;;;;24.33;5.65;;;22.40;99.90;;;;;;5073067;28;20021;-66
2023/10/11 11:49:47;;;;;;;25.60;6.93;;;22.20;99.90;;;;;;5073103;28;20028;-67
2023/10/11 11:52:16;;;;;;;17.90;6.05;;;22.10;99.90;;;;;;5072730;28;20053;-66
2023/10/11 11:54:43;;;;;;;15.55;5.47;;;22.00;99.90;;;;;;5073076;28;20090;-67
2023/10/11 11:57:09;;;;;;;17.23;5.40;;;21.80;99.90;;;;;;5072358;28;20145;-67
2023/10/11 11:59:36;;;;;;;19.52;5.65;;;21.80;99.90;;;;;;5071123;28;20029;-67
2023/10/11 12:02:02;;;;;;;23.80;6.72;;;21.70;99.90;;;;;;5072776;28;20032;-67
2023/10/11 12:04:29;;;;;;;21.17;6.18;;;21.60;99.90;;;;;;5072926;28;20028;-67
2023/10/11 12:06:57;;;;;;;21.83;5.30;;;21.60;99.90;;;;;;5072709;28;20057;-67
2023/10/11 12:09:31;;;;;;;22.13;5.50;;;21.60;99.90;;;;;;5072875;28;20166;-67
2023/10/11 12:12:02;;;;;;;22.05;5.85;;;21.70;99.90;;;;;;5072807;28;20461;-67
2023/10/11 12:14:28;;;;;;;21.92;5.75;;;21.70;99.90;;;;;;5072107;28;20020;-67
2023/10/11 12:16:55;;;;;;;21.95;5.82;;;21.70;99.90;;;;;;5072614;28;20495;-67
2023/10/11 12:19:21;;;;;;;18.80;5.28;;;21.70;99.90;;;;;;5072550;28;20379;-67
2023/10/11 12:21:47;;;;;;;20.38;5.05;;;21.80;99.90;;;;;;5072517;28;20031;-66
2023/10/11 12:24:12;;;;;;;22.27;4.63;;;21.90;99.90;;;;;;5072285;28;20115;-66
2023/10/11 12:26:43;;;;;;;15.63;4.40;;;22.00;99.90;;;;;;5072636;28;20119;-66
2023/10/11 12:29:14;;;;;;;18.23;5.05;;;22.10;99.90;;;;;;5072789;28;20062;-66
2023/10/11 12:31:40;;;;;;;16.95;5.05;;;22.10;99.90;;;;;;5072318;28;20114;-66
2023/10/11 12:34:09;;;;;;;17.75;5.40;;;22.10;99.90;;;;;;5079898;28;20036;-65
2023/10/11 12:36:38;;;;;;;24.60;6.22;;;22.10;99.90;;;;;;5080319;28;20381;-66
2023/10/11 12:39:05;;;;;;;18.73;5.65;;;22.00;99.90;;;;;;5072556;28;20051;-66
2023/10/11 12:41:31;;;;;;;19.02;5.30;;;22.10;99.90;;;;;;5088714;28;20032;-66
2023/10/11 12:43:56;;;;;;;20.98;5.93;;;22.10;99.90;;;;;;5092363;28;20028;-65
2023/10/11 12:46:22;;;;;;;21.77;5.60;;;22.00;99.90;;;;;;5092499;28;20040;-68
2023/10/11 12:48:54;;;;;;;24.85;5.90;;;21.90;99.90;;;;;;5086204;28;20180;-67
2023/10/11 12:51:22;;;;;;;17.92;6.03;;;21.90;99.90;;;;;;5071816;28;20068;-67
2023/10/11 12:53:47;;;;;;;21.63;6.63;;;21.80;99.90;;;;;;5072518;28;20027;-66
2023/10/11 12:56:14;;;;;;;24.98;6.68;;;21.70;99.90;;;;;;5072040;28;20021;-66
2023/10/11 12:58:40;;;;;;;22.55;6.45;;;21.70;99.90;;;;;;5072433;28;20050;-66
2023/10/11 13:01:11;;;;;;;20.55;5.32;;;21.80;99.90;;;;;;5070571;28;20111;-66
2023/10/11 13:03:38;;;;;;;20.60;5.60;;;21.90;99.90;;;;;;5072240;28;20377;-67
2023/10/11 13:06:05;;;;;;;21.08;6.43;;;21.80;99.90;;;;;;5079798;28;20058;-67
2023/10/11 13:08:33;;;;;;;25.02;7.18;;;21.70;99.90;;;;;;5087574;28;20043;-67
2023/10/11 13:11:00;;;;;;;26.15;7.53;;;21.70;99.90;;;;;;5072355;28;20029;-66
2023/10/11 13:13:27;;;;;;;29.90;9.15;;;21.70;99.90;;;;;;5072177;28;20033;-66
2023/10/11 13:15:58;;;;;;;26.85;8.98;;;21.60;99.90;;;;;;5072227;28;20036;-67
2023/10/11 13:18:28;;;;;;;27.85;10.73;;;21.50;99.90;;;;;;5052020;28;20037;-66
2023/10/11 13:20:55;;;;;;;26.52;9.73;;;21.30;99.90;;;;;;5052117;28;20055;-66
2023/10/11 13:23:28;;;;;;;26.27;8.90;;;21.20;99.90;;;;;;5052033;28;20485;-66
2023/10/11 13:25:55;;;;;;;28.88;9.48;;;21.10;99.90;;;;;;5054062;28;20055;-67
2023/10/11 13:28:21;;;;;;;24.27;7.78;;;21.00;99.90;;;;;;5055848;28;20033;-66
2023/10/11 13:30:47;;;;;;;19.90;6.93;;;21.00;99.90;;;;;;5055467;28;20107;-67
2023/10/11 13:33:15;;;;;;;23.88;7.22;;;20.90;99.90;;;;;;5055341;28;20388;-67
2023/10/11 13:35:41;;;;;;;27.08;7.70;;;20.90;99.90;;;;;;5055665;28;20033;-67
2023/10/11 13:38:17;;;;;;;21.58;7.03;;;20.90;99.90;;;;;;5055720;28;20523;-66